sensor_id;sensor_type;location;lat;lon;timestamp;P1;durP1;ratioP1;P2;durP2;ratioP2
74541;SDS011;63015;45.378;20.360;2023-09-08T00:01:15;54.78;;;36.83;;
74541;SDS011;63015;45.378;20.360;2023-09-08T00:03:15;47.58;;;28.40;;
74541;SDS011;63015;45.378;20.360;2023-09-08T00:05:16;35.35;;;22.02;;
74541;SDS011;63015;45.378;20.360;2023-09-08T00:07:17;35.33;;;21.65;;
74541;SDS011;63015;45.378;20.360;2023-09-08T00:09:17;29.58;;;19.05;;
74541;SDS011;63015;45.378;20.360;2023-09-08T00:11:18;27.63;;;16.55;;
74541;SDS011;63015;45.378;20.360;2023-09-08T00:13:20;26.15;;;15.68;;
74541;SDS011;63015;45.378;20.360;2023-09-08T00:15:20;27.63;;;14.55;;
74541;SDS011;63015;45.378;20.360;2023-09-08T00:17:21;22.90;;;10.98;;
74541;SDS011;63015;45.378;20.360;2023-09-08T00:19:22;17.63;;;10.10;;
74541;SDS011;63015;45.378;20.360;2023-09-08T00:21:26;19.45;;;9.35;;
74541;SDS011;63015;45.378;20.360;2023-09-08T00:23:27;17.02;;;8.38;;
74541;SDS011;63015;45.378;20.360;2023-09-08T00:25:28;14.57;;;8.93;;
74541;SDS011;63015;45.378;20.360;2023-09-08T00:27:29;14.82;;;8.57;;
74541;SDS011;63015;45.378;20.360;2023-09-08T00:29:30;14.52;;;8.02;;
74541;SDS011;63015;45.378;20.360;2023-09-08T00:31:30;14.15;;;8.45;;
74541;SDS011;63015;45.378;20.360;2023-09-08T00:33:31;18.90;;;9.18;;
74541;SDS011;63015;45.378;20.360;2023-09-08T00:35:32;15.90;;;9.00;;
74541;SDS011;63015;45.378;20.360;2023-09-08T00:37:32;14.50;;;9.07;;
74541;SDS011;63015;45.378;20.360;2023-09-08T00:39:36;16.83;;;8.65;;
74541;SDS011;63015;45.378;20.360;2023-09-08T00:41:37;15.60;;;8.40;;
74541;SDS011;63015;45.378;20.360;2023-09-08T00:43:38;16.00;;;8.05;;
74541;SDS011;63015;45.378;20.360;2023-09-08T00:45:40;15.15;;;8.55;;
74541;SDS011;63015;45.378;20.360;2023-09-08T00:47:42;14.90;;;8.70;;
74541;SDS011;63015;45.378;20.360;2023-09-08T00:49:43;18.67;;;9.07;;
74541;SDS011;63015;45.378;20.360;2023-09-08T00:51:44;21.45;;;9.63;;
74541;SDS011;63015;45.378;20.360;2023-09-08T00:53:44;14.48;;;9.00;;
74541;SDS011;63015;45.378;20.360;2023-09-08T00:55:45;16.45;;;8.70;;
74541;SDS011;63015;45.378;20.360;2023-09-08T00:57:46;13.85;;;8.48;;
74541;SDS011;63015;45.378;20.360;2023-09-08T00:59:47;14.23;;;8.00;;
74541;SDS011;63015;45.378;20.360;2023-09-08T01:01:47;14.00;;;8.27;;
74541;SDS011;63015;45.378;20.360;2023-09-08T01:03:48;14.98;;;8.93;;
74541;SDS011;63015;45.378;20.360;2023-09-08T01:05:50;17.02;;;8.50;;
74541;SDS011;63015;45.378;20.360;2023-09-08T01:07:51;14.82;;;8.70;;
74541;SDS011;63015;45.378;20.360;2023-09-08T01:09:53;14.75;;;8.27;;
74541;SDS011;63015;45.378;20.360;2023-09-08T01:11:54;16.80;;;8.43;;
74541;SDS011;63015;45.378;20.360;2023-09-08T01:13:56;14.68;;;8.07;;
74541;SDS011;63015;45.378;20.360;2023-09-08T01:15:57;14.93;;;8.13;;
74541;SDS011;63015;45.378;20.360;2023-09-08T01:17:58;17.85;;;9.02;;
74541;SDS011;63015;45.378;20.360;2023-09-08T01:20:02;16.77;;;9.13;;
74541;SDS011;63015;45.378;20.360;2023-09-08T01:26:39;14.27;;;8.88;;
74541;SDS011;63015;45.378;20.360;2023-09-08T01:28:42;14.23;;;9.07;;
74541;SDS011;63015;45.378;20.360;2023-09-08T01:30:48;14.00;;;8.82;;
74541;SDS011;63015;45.378;20.360;2023-09-08T01:32:50;17.83;;;8.95;;
74541;SDS011;63015;45.378;20.360;2023-09-08T01:34:52;17.70;;;8.80;;
74541;SDS011;63015;45.378;20.360;2023-09-08T01:36:53;14.80;;;8.20;;
74541;SDS011;63015;45.378;20.360;2023-09-08T01:38:53;16.15;;;8.77;;
74541;SDS011;63015;45.378;20.360;2023-09-08T01:40:54;15.50;;;8.73;;
74541;SDS011;63015;45.378;20.360;2023-09-08T01:42:55;14.70;;;8.77;;
74541;SDS011;63015;45.378;20.360;2023-09-08T01:44:56;14.70;;;8.50;;
74541;SDS011;63015;45.378;20.360;2023-09-08T01:46:57;15.30;;;9.00;;
74541;SDS011;63015;45.378;20.360;2023-09-08T01:48:58;14.20;;;9.77;;
74541;SDS011;63015;45.378;20.360;2023-09-08T01:50:58;13.63;;;8.85;;
74541;SDS011;63015;45.378;20.360;2023-09-08T01:52:59;16.25;;;8.75;;
74541;SDS011;63015;45.378;20.360;2023-09-08T01:55:00;15.88;;;8.75;;
74541;SDS011;63015;45.378;20.360;2023-09-08T01:57:02;15.88;;;9.20;;
74541;SDS011;63015;45.378;20.360;2023-09-08T01:59:03;13.32;;;8.70;;
74541;SDS011;63015;45.378;20.360;2023-09-08T02:01:05;17.67;;;8.98;;
74541;SDS011;63015;45.378;20.360;2023-09-08T02:03:05;14.05;;;8.70;;
74541;SDS011;63015;45.378;20.360;2023-09-08T02:05:06;14.25;;;8.35;;
74541;SDS011;63015;45.378;20.360;2023-09-08T02:07:08;14.38;;;9.07;;
74541;SDS011;63015;45.378;20.360;2023-09-08T02:09:11;13.07;;;9.18;;
74541;SDS011;63015;45.378;20.360;2023-09-08T02:11:14;13.77;;;7.78;;
74541;SDS011;63015;45.378;20.360;2023-09-08T02:13:14;17.42;;;9.30;;
74541;SDS011;63015;45.378;20.360;2023-09-08T02:15:15;13.38;;;8.30;;
74541;SDS011;63015;45.378;20.360;2023-09-08T02:17:17;15.25;;;8.77;;
74541;SDS011;63015;45.378;20.360;2023-09-08T02:19:18;15.38;;;7.70;;
74541;SDS011;63015;45.378;20.360;2023-09-08T02:21:19;13.05;;;8.07;;
74541;SDS011;63015;45.378;20.360;2023-09-08T02:23:21;13.32;;;7.35;;
74541;SDS011;63015;45.378;20.360;2023-09-08T02:25:23;15.20;;;7.55;;
74541;SDS011;63015;45.378;20.360;2023-09-08T02:27:24;13.50;;;8.88;;
74541;SDS011;63015;45.378;20.360;2023-09-08T02:29:25;12.25;;;7.75;;
74541;SDS011;63015;45.378;20.360;2023-09-08T02:31:27;15.23;;;7.90;;
74541;SDS011;63015;45.378;20.360;2023-09-08T02:33:28;12.85;;;7.35;;
74541;SDS011;63015;45.378;20.360;2023-09-08T02:35:29;15.80;;;8.48;;
74541;SDS011;63015;45.378;20.360;2023-09-08T02:37:33;15.25;;;8.07;;
74541;SDS011;63015;45.378;20.360;2023-09-08T02:39:33;19.13;;;8.73;;
74541;SDS011;63015;45.378;20.360;2023-09-08T02:41:34;13.93;;;8.07;;
74541;SDS011;63015;45.378;20.360;2023-09-08T02:43:35;16.48;;;8.40;;
74541;SDS011;63015;45.378;20.360;2023-09-08T02:45:36;17.20;;;9.43;;
74541;SDS011;63015;45.378;20.360;2023-09-08T02:47:36;14.70;;;8.40;;
74541;SDS011;63015;45.378;20.360;2023-09-08T02:49:37;15.25;;;8.60;;
74541;SDS011;63015;45.378;20.360;2023-09-08T02:51:38;17.75;;;10.82;;
74541;SDS011;63015;45.378;20.360;2023-09-08T02:53:39;18.08;;;11.15;;
74541;SDS011;63015;45.378;20.360;2023-09-08T02:55:39;18.98;;;11.13;;
74541;SDS011;63015;45.378;20.360;2023-09-08T02:57:40;21.40;;;11.35;;
74541;SDS011;63015;45.378;20.360;2023-09-08T02:59:41;21.05;;;12.05;;
74541;SDS011;63015;45.378;20.360;2023-09-08T03:01:42;19.27;;;11.43;;
74541;SDS011;63015;45.378;20.360;2023-09-08T03:03:43;20.52;;;12.18;;
74541;SDS011;63015;45.378;20.360;2023-09-08T03:05:45;20.80;;;12.55;;
74541;SDS011;63015;45.378;20.360;2023-09-08T03:07:49;21.02;;;10.98;;
74541;SDS011;63015;45.378;20.360;2023-09-08T03:09:50;19.23;;;10.38;;
74541;SDS011;63015;45.378;20.360;2023-09-08T03:11:51;19.45;;;10.30;;
74541;SDS011;63015;45.378;20.360;2023-09-08T03:13:51;18.48;;;9.73;;
74541;SDS011;63015;45.378;20.360;2023-09-08T03:15:52;17.38;;;10.38;;
74541;SDS011;63015;45.378;20.360;2023-09-08T03:17:56;17.25;;;9.38;;
74541;SDS011;63015;45.378;20.360;2023-09-08T03:20:00;16.08;;;8.80;;
74541;SDS011;63015;45.378;20.360;2023-09-08T03:22:01;15.55;;;8.88;;
74541;SDS011;63015;45.378;20.360;2023-09-08T03:24:02;13.85;;;8.15;;
74541;SDS011;63015;45.378;20.360;2023-09-08T03:26:03;19.05;;;8.75;;
74541;SDS011;63015;45.378;20.360;2023-09-08T03:28:03;12.93;;;7.35;;
74541;SDS011;63015;45.378;20.360;2023-09-08T03:30:06;14.60;;;7.55;;
74541;SDS011;63015;45.378;20.360;2023-09-08T03:32:07;14.90;;;7.43;;
74541;SDS011;63015;45.378;20.360;2023-09-08T03:34:08;13.68;;;7.00;;
74541;SDS011;63015;45.378;20.360;2023-09-08T03:36:09;12.70;;;7.35;;
74541;SDS011;63015;45.378;20.360;2023-09-08T03:38:10;14.95;;;7.72;;
74541;SDS011;63015;45.378;20.360;2023-09-08T03:40:10;14.07;;;8.27;;
74541;SDS011;63015;45.378;20.360;2023-09-08T03:42:11;16.38;;;8.65;;
74541;SDS011;63015;45.378;20.360;2023-09-08T03:44:13;12.63;;;7.40;;
74541;SDS011;63015;45.378;20.360;2023-09-08T03:46:13;17.90;;;7.22;;
74541;SDS011;63015;45.378;20.360;2023-09-08T03:48:14;13.32;;;7.90;;
74541;SDS011;63015;45.378;20.360;2023-09-08T03:50:15;16.13;;;6.97;;
74541;SDS011;63015;45.378;20.360;2023-09-08T03:52:15;15.52;;;8.50;;
74541;SDS011;63015;45.378;20.360;2023-09-08T03:54:16;15.82;;;7.15;;
74541;SDS011;63015;45.378;20.360;2023-09-08T03:56:16;13.00;;;8.48;;
74541;SDS011;63015;45.378;20.360;2023-09-08T03:58:17;15.05;;;8.23;;
74541;SDS011;63015;45.378;20.360;2023-09-08T04:00:18;14.57;;;7.53;;
74541;SDS011;63015;45.378;20.360;2023-09-08T04:02:22;14.82;;;7.25;;
74541;SDS011;63015;45.378;20.360;2023-09-08T04:04:22;14.35;;;7.20;;
74541;SDS011;63015;45.378;20.360;2023-09-08T04:06:23;18.75;;;8.60;;
74541;SDS011;63015;45.378;20.360;2023-09-08T04:08:25;12.85;;;6.88;;
74541;SDS011;63015;45.378;20.360;2023-09-08T04:10:25;14.45;;;6.90;;
74541;SDS011;63015;45.378;20.360;2023-09-08T04:12:26;13.73;;;6.90;;
74541;SDS011;63015;45.378;20.360;2023-09-08T04:14:27;13.05;;;6.97;;
74541;SDS011;63015;45.378;20.360;2023-09-08T04:16:28;12.18;;;6.72;;
74541;SDS011;63015;45.378;20.360;2023-09-08T04:18:29;12.63;;;7.40;;
74541;SDS011;63015;45.378;20.360;2023-09-08T04:20:30;15.13;;;7.38;;
74541;SDS011;63015;45.378;20.360;2023-09-08T04:22:31;12.45;;;7.25;;
74541;SDS011;63015;45.378;20.360;2023-09-08T04:24:36;15.65;;;6.30;;
74541;SDS011;63015;45.378;20.360;2023-09-08T04:26:37;13.05;;;7.82;;
74541;SDS011;63015;45.378;20.360;2023-09-08T04:28:38;13.00;;;6.78;;
74541;SDS011;63015;45.378;20.360;2023-09-08T04:30:39;12.15;;;6.53;;
74541;SDS011;63015;45.378;20.360;2023-09-08T04:32:40;11.48;;;6.78;;
74541;SDS011;63015;45.378;20.360;2023-09-08T04:34:41;10.30;;;5.95;;
74541;SDS011;63015;45.378;20.360;2023-09-08T04:36:42;14.70;;;5.93;;
74541;SDS011;63015;45.378;20.360;2023-09-08T04:38:43;14.45;;;6.53;;
74541;SDS011;63015;45.378;20.360;2023-09-08T04:40:45;17.38;;;6.40;;
74541;SDS011;63015;45.378;20.360;2023-09-08T04:42:46;11.20;;;5.63;;
74541;SDS011;63015;45.378;20.360;2023-09-08T04:44:47;10.77;;;5.60;;
74541;SDS011;63015;45.378;20.360;2023-09-08T04:46:48;11.15;;;5.75;;
74541;SDS011;63015;45.378;20.360;2023-09-08T04:48:49;11.02;;;5.95;;
74541;SDS011;63015;45.378;20.360;2023-09-08T04:50:51;9.90;;;6.85;;
74541;SDS011;63015;45.378;20.360;2023-09-08T04:52:51;12.75;;;5.75;;
74541;SDS011;63015;45.378;20.360;2023-09-08T04:54:52;12.13;;;5.80;;
74541;SDS011;63015;45.378;20.360;2023-09-08T04:56:53;9.05;;;5.32;;
74541;SDS011;63015;45.378;20.360;2023-09-08T04:58:55;11.57;;;6.40;;
74541;SDS011;63015;45.378;20.360;2023-09-08T05:00:56;10.40;;;5.18;;
74541;SDS011;63015;45.378;20.360;2023-09-08T05:02:57;11.27;;;5.47;;
74541;SDS011;63015;45.378;20.360;2023-09-08T05:04:57;8.90;;;4.35;;
74541;SDS011;63015;45.378;20.360;2023-09-08T05:07:00;10.85;;;5.15;;
74541;SDS011;63015;45.378;20.360;2023-09-08T05:09:01;10.43;;;5.82;;
74541;SDS011;63015;45.378;20.360;2023-09-08T05:11:03;9.95;;;5.25;;
74541;SDS011;63015;45.378;20.360;2023-09-08T05:13:05;15.48;;;5.93;;
74541;SDS011;63015;45.378;20.360;2023-09-08T05:15:06;15.00;;;6.22;;
74541;SDS011;63015;45.378;20.360;2023-09-08T05:17:13;13.57;;;6.45;;
74541;SDS011;63015;45.378;20.360;2023-09-08T05:19:13;11.50;;;5.90;;
74541;SDS011;63015;45.378;20.360;2023-09-08T05:21:14;15.05;;;6.45;;
74541;SDS011;63015;45.378;20.360;2023-09-08T05:23:15;15.05;;;6.10;;
74541;SDS011;63015;45.378;20.360;2023-09-08T05:25:16;13.77;;;6.10;;
74541;SDS011;63015;45.378;20.360;2023-09-08T05:27:16;15.73;;;6.50;;
74541;SDS011;63015;45.378;20.360;2023-09-08T05:29:17;12.27;;;5.75;;
74541;SDS011;63015;45.378;20.360;2023-09-08T05:31:18;14.00;;;5.60;;
74541;SDS011;63015;45.378;20.360;2023-09-08T05:33:19;9.57;;;5.30;;
74541;SDS011;63015;45.378;20.360;2023-09-08T05:35:20;10.63;;;4.60;;
74541;SDS011;63015;45.378;20.360;2023-09-08T05:37:23;9.75;;;5.35;;
74541;SDS011;63015;45.378;20.360;2023-09-08T05:39:23;12.25;;;4.65;;
74541;SDS011;63015;45.378;20.360;2023-09-08T05:41:24;10.00;;;4.97;;
74541;SDS011;63015;45.378;20.360;2023-09-08T05:43:24;12.00;;;4.82;;
74541;SDS011;63015;45.378;20.360;2023-09-08T05:45:28;11.48;;;5.10;;
74541;SDS011;63015;45.378;20.360;2023-09-08T05:47:30;9.82;;;4.63;;
74541;SDS011;63015;45.378;20.360;2023-09-08T05:49:31;12.75;;;5.18;;
74541;SDS011;63015;45.378;20.360;2023-09-08T05:51:31;10.45;;;5.07;;
74541;SDS011;63015;45.378;20.360;2023-09-08T05:53:32;9.00;;;4.63;;
74541;SDS011;63015;45.378;20.360;2023-09-08T05:55:36;8.68;;;4.35;;
74541;SDS011;63015;45.378;20.360;2023-09-08T05:57:36;8.90;;;4.30;;
74541;SDS011;63015;45.378;20.360;2023-09-08T05:59:37;14.38;;;4.57;;
74541;SDS011;63015;45.378;20.360;2023-09-08T06:01:38;12.07;;;5.85;;
74541;SDS011;63015;45.378;20.360;2023-09-08T06:03:41;13.27;;;7.68;;
74541;SDS011;63015;45.378;20.360;2023-09-08T06:05:43;14.48;;;8.57;;
74541;SDS011;63015;45.378;20.360;2023-09-08T06:07:44;12.05;;;7.60;;
74541;SDS011;63015;45.378;20.360;2023-09-08T06:09:45;15.48;;;8.93;;
74541;SDS011;63015;45.378;20.360;2023-09-08T06:11:46;13.48;;;6.50;;
74541;SDS011;63015;45.378;20.360;2023-09-08T06:13:48;9.98;;;4.50;;
74541;SDS011;63015;45.378;20.360;2023-09-08T06:15:49;9.82;;;4.32;;
74541;SDS011;63015;45.378;20.360;2023-09-08T06:17:50;8.15;;;3.63;;
74541;SDS011;63015;45.378;20.360;2023-09-08T06:19:51;10.88;;;4.97;;
74541;SDS011;63015;45.378;20.360;2023-09-08T06:21:52;8.35;;;3.90;;
74541;SDS011;63015;45.378;20.360;2023-09-08T06:23:53;9.10;;;3.85;;
74541;SDS011;63015;45.378;20.360;2023-09-08T06:25:56;8.63;;;3.97;;
74541;SDS011;63015;45.378;20.360;2023-09-08T06:28:00;6.78;;;3.45;;
74541;SDS011;63015;45.378;20.360;2023-09-08T06:30:01;8.15;;;4.22;;
74541;SDS011;63015;45.378;20.360;2023-09-08T06:32:04;8.20;;;4.00;;
74541;SDS011;63015;45.378;20.360;2023-09-08T06:34:05;8.93;;;4.18;;
74541;SDS011;63015;45.378;20.360;2023-09-08T06:36:06;7.88;;;4.40;;
74541;SDS011;63015;45.378;20.360;2023-09-08T06:38:07;9.15;;;4.25;;
74541;SDS011;63015;45.378;20.360;2023-09-08T06:40:08;7.32;;;3.08;;
74541;SDS011;63015;45.378;20.360;2023-09-08T06:42:09;9.15;;;4.03;;
74541;SDS011;63015;45.378;20.360;2023-09-08T06:44:11;10.93;;;3.92;;
74541;SDS011;63015;45.378;20.360;2023-09-08T06:46:13;6.93;;;4.32;;
74541;SDS011;63015;45.378;20.360;2023-09-08T06:48:13;10.50;;;4.15;;
74541;SDS011;63015;45.378;20.360;2023-09-08T06:50:14;7.05;;;4.30;;
74541;SDS011;63015;45.378;20.360;2023-09-08T06:52:14;7.10;;;3.35;;
74541;SDS011;63015;45.378;20.360;2023-09-08T06:54:17;7.63;;;3.72;;
74541;SDS011;63015;45.378;20.360;2023-09-08T06:56:18;7.75;;;3.58;;
74541;SDS011;63015;45.378;20.360;2023-09-08T06:58:19;7.13;;;3.38;;
74541;SDS011;63015;45.378;20.360;2023-09-08T07:00:21;9.50;;;3.45;;
74541;SDS011;63015;45.378;20.360;2023-09-08T07:02:22;8.93;;;3.60;;
74541;SDS011;63015;45.378;20.360;2023-09-08T07:04:23;10.00;;;3.53;;
74541;SDS011;63015;45.378;20.360;2023-09-08T07:06:23;8.73;;;3.65;;
74541;SDS011;63015;45.378;20.360;2023-09-08T07:08:25;7.53;;;3.40;;
74541;SDS011;63015;45.378;20.360;2023-09-08T07:10:26;6.75;;;3.15;;
74541;SDS011;63015;45.378;20.360;2023-09-08T07:12:27;7.95;;;3.28;;
74541;SDS011;63015;45.378;20.360;2023-09-08T07:14:28;5.97;;;3.38;;
74541;SDS011;63015;45.378;20.360;2023-09-08T07:16:29;8.40;;;3.55;;
74541;SDS011;63015;45.378;20.360;2023-09-08T07:18:31;6.88;;;3.28;;
74541;SDS011;63015;45.378;20.360;2023-09-08T07:20:36;9.18;;;4.13;;
74541;SDS011;63015;45.378;20.360;2023-09-08T07:22:36;7.68;;;3.30;;
74541;SDS011;63015;45.378;20.360;2023-09-08T07:24:37;8.18;;;3.35;;
74541;SDS011;63015;45.378;20.360;2023-09-08T07:26:38;8.18;;;3.72;;
74541;SDS011;63015;45.378;20.360;2023-09-08T07:28:39;6.90;;;3.63;;
74541;SDS011;63015;45.378;20.360;2023-09-08T07:30:44;9.55;;;3.33;;
74541;SDS011;63015;45.378;20.360;2023-09-08T07:32:46;5.50;;;2.70;;
74541;SDS011;63015;45.378;20.360;2023-09-08T07:34:46;7.93;;;3.40;;
74541;SDS011;63015;45.378;20.360;2023-09-08T07:36:54;7.80;;;4.03;;
74541;SDS011;63015;45.378;20.360;2023-09-08T07:38:55;6.72;;;3.50;;
74541;SDS011;63015;45.378;20.360;2023-09-08T07:40:56;8.93;;;3.67;;
74541;SDS011;63015;45.378;20.360;2023-09-08T07:42:56;9.45;;;3.78;;
74541;SDS011;63015;45.378;20.360;2023-09-08T07:44:57;5.80;;;3.17;;
74541;SDS011;63015;45.378;20.360;2023-09-08T07:46:57;9.10;;;3.70;;
74541;SDS011;63015;45.378;20.360;2023-09-08T07:48:59;9.73;;;3.72;;
74541;SDS011;63015;45.378;20.360;2023-09-08T07:50:59;7.47;;;3.47;;
74541;SDS011;63015;45.378;20.360;2023-09-08T07:53:00;7.70;;;3.40;;
74541;SDS011;63015;45.378;20.360;2023-09-08T07:55:01;6.38;;;3.40;;
74541;SDS011;63015;45.378;20.360;2023-09-08T07:57:03;8.15;;;3.70;;
74541;SDS011;63015;45.378;20.360;2023-09-08T07:59:04;7.57;;;3.30;;
74541;SDS011;63015;45.378;20.360;2023-09-08T08:01:05;7.97;;;3.63;;
74541;SDS011;63015;45.378;20.360;2023-09-08T08:03:06;9.38;;;3.00;;
74541;SDS011;63015;45.378;20.360;2023-09-08T08:05:07;6.45;;;3.55;;
74541;SDS011;63015;45.378;20.360;2023-09-08T08:07:07;9.50;;;3.33;;
74541;SDS011;63015;45.378;20.360;2023-09-08T08:09:08;5.78;;;2.95;;
74541;SDS011;63015;45.378;20.360;2023-09-08T08:11:10;5.47;;;3.33;;
74541;SDS011;63015;45.378;20.360;2023-09-08T08:13:14;7.80;;;3.53;;
74541;SDS011;63015;45.378;20.360;2023-09-08T08:15:15;7.88;;;3.30;;
74541;SDS011;63015;45.378;20.360;2023-09-08T08:17:16;7.43;;;3.20;;
74541;SDS011;63015;45.378;20.360;2023-09-08T08:19:18;8.88;;;3.38;;
74541;SDS011;63015;45.378;20.360;2023-09-08T08:21:18;6.88;;;3.30;;
74541;SDS011;63015;45.378;20.360;2023-09-08T08:23:19;5.82;;;3.17;;
74541;SDS011;63015;45.378;20.360;2023-09-08T08:25:20;6.75;;;3.28;;
74541;SDS011;63015;45.378;20.360;2023-09-08T08:27:20;10.40;;;3.38;;
74541;SDS011;63015;45.378;20.360;2023-09-08T08:29:21;8.15;;;3.28;;
74541;SDS011;63015;45.378;20.360;2023-09-08T08:31:21;7.65;;;3.47;;
74541;SDS011;63015;45.378;20.360;2023-09-08T08:33:23;5.78;;;3.20;;
74541;SDS011;63015;45.378;20.360;2023-09-08T08:35:26;5.75;;;3.03;;
74541;SDS011;63015;45.378;20.360;2023-09-08T08:37:26;6.85;;;3.22;;
74541;SDS011;63015;45.378;20.360;2023-09-08T08:39:27;10.10;;;3.70;;
74541;SDS011;63015;45.378;20.360;2023-09-08T08:41:28;11.38;;;3.90;;
74541;SDS011;63015;45.378;20.360;2023-09-08T08:43:29;5.93;;;3.25;;
74541;SDS011;63015;45.378;20.360;2023-09-08T08:45:31;11.82;;;4.03;;
74541;SDS011;63015;45.378;20.360;2023-09-08T08:47:33;8.52;;;4.07;;
74541;SDS011;63015;45.378;20.360;2023-09-08T08:49:34;6.78;;;3.22;;
74541;SDS011;63015;45.378;20.360;2023-09-08T08:51:34;9.80;;;3.20;;
74541;SDS011;63015;45.378;20.360;2023-09-08T08:53:36;7.68;;;3.55;;
74541;SDS011;63015;45.378;20.360;2023-09-08T08:55:39;7.50;;;3.10;;
74541;SDS011;63015;45.378;20.360;2023-09-08T08:57:40;5.55;;;3.28;;
74541;SDS011;63015;45.378;20.360;2023-09-08T08:59:41;6.00;;;3.10;;
74541;SDS011;63015;45.378;20.360;2023-09-08T09:01:42;6.65;;;3.00;;
74541;SDS011;63015;45.378;20.360;2023-09-08T09:03:43;8.15;;;3.20;;
74541;SDS011;63015;45.378;20.360;2023-09-08T09:05:48;6.65;;;3.20;;
74541;SDS011;63015;45.378;20.360;2023-09-08T09:07:49;7.85;;;3.22;;
74541;SDS011;63015;45.378;20.360;2023-09-08T09:09:51;6.78;;;3.00;;
74541;SDS011;63015;45.378;20.360;2023-09-08T09:11:52;7.20;;;2.95;;
74541;SDS011;63015;45.378;20.360;2023-09-08T09:13:53;7.15;;;2.83;;
74541;SDS011;63015;45.378;20.360;2023-09-08T09:15:57;8.43;;;3.65;;
74541;SDS011;63015;45.378;20.360;2023-09-08T09:18:03;6.18;;;3.63;;
74541;SDS011;63015;45.378;20.360;2023-09-08T09:20:17;8.38;;;3.03;;
74541;SDS011;63015;45.378;20.360;2023-09-08T09:22:20;7.95;;;3.03;;
74541;SDS011;63015;45.378;20.360;2023-09-08T09:24:28;7.97;;;3.42;;
74541;SDS011;63015;45.378;20.360;2023-09-08T09:26:32;6.93;;;3.53;;
74541;SDS011;63015;45.378;20.360;2023-09-08T09:28:33;8.25;;;3.30;;
74541;SDS011;63015;45.378;20.360;2023-09-08T09:30:50;6.25;;;2.92;;
74541;SDS011;63015;45.378;20.360;2023-09-08T09:32:59;6.38;;;3.08;;
74541;SDS011;63015;45.378;20.360;2023-09-08T09:35:03;6.85;;;2.97;;
74541;SDS011;63015;45.378;20.360;2023-09-08T09:37:04;7.00;;;2.63;;
74541;SDS011;63015;45.378;20.360;2023-09-08T09:39:05;6.90;;;3.13;;
74541;SDS011;63015;45.378;20.360;2023-09-08T09:41:06;7.63;;;3.35;;
74541;SDS011;63015;45.378;20.360;2023-09-08T09:43:06;9.75;;;2.97;;
74541;SDS011;63015;45.378;20.360;2023-09-08T09:45:08;9.45;;;3.13;;
74541;SDS011;63015;45.378;20.360;2023-09-08T09:47:09;5.32;;;3.05;;
74541;SDS011;63015;45.378;20.360;2023-09-08T09:49:14;8.82;;;2.83;;
74541;SDS011;63015;45.378;20.360;2023-09-08T09:51:19;6.47;;;3.30;;
74541;SDS011;63015;45.378;20.360;2023-09-08T09:53:20;7.22;;;3.42;;
74541;SDS011;63015;45.378;20.360;2023-09-08T09:55:21;6.97;;;2.70;;
74541;SDS011;63015;45.378;20.360;2023-09-08T09:57:22;6.82;;;3.28;;
74541;SDS011;63015;45.378;20.360;2023-09-08T09:59:23;8.55;;;2.95;;
74541;SDS011;63015;45.378;20.360;2023-09-08T10:01:24;8.85;;;3.50;;
74541;SDS011;63015;45.378;20.360;2023-09-08T10:03:25;6.70;;;2.92;;
74541;SDS011;63015;45.378;20.360;2023-09-08T10:05:27;9.02;;;2.90;;
74541;SDS011;63015;45.378;20.360;2023-09-08T10:07:27;6.50;;;3.40;;
74541;SDS011;63015;45.378;20.360;2023-09-08T10:09:28;8.73;;;3.08;;
74541;SDS011;63015;45.378;20.360;2023-09-08T10:11:29;7.57;;;2.83;;
74541;SDS011;63015;45.378;20.360;2023-09-08T10:13:38;14.10;;;3.83;;
74541;SDS011;63015;45.378;20.360;2023-09-08T10:15:40;7.75;;;2.88;;
74541;SDS011;63015;45.378;20.360;2023-09-08T10:17:42;7.30;;;2.67;;
74541;SDS011;63015;45.378;20.360;2023-09-08T10:19:46;6.82;;;3.35;;
74541;SDS011;63015;45.378;20.360;2023-09-08T10:21:51;5.35;;;3.10;;
74541;SDS011;63015;45.378;20.360;2023-09-08T10:24:02;10.48;;;2.85;;
74541;SDS011;63015;45.378;20.360;2023-09-08T10:26:09;7.40;;;2.78;;
74541;SDS011;63015;45.378;20.360;2023-09-08T10:28:12;7.40;;;2.88;;
74541;SDS011;63015;45.378;20.360;2023-09-08T10:30:13;5.68;;;2.83;;
74541;SDS011;63015;45.378;20.360;2023-09-08T10:32:16;9.52;;;3.45;;
74541;SDS011;63015;45.378;20.360;2023-09-08T10:34:18;7.80;;;2.80;;
74541;SDS011;63015;45.378;20.360;2023-09-08T10:36:20;6.18;;;3.25;;
74541;SDS011;63015;45.378;20.360;2023-09-08T10:38:21;8.73;;;3.00;;
74541;SDS011;63015;45.378;20.360;2023-09-08T10:40:25;6.80;;;3.05;;
74541;SDS011;63015;45.378;20.360;2023-09-08T10:42:28;5.53;;;2.72;;
74541;SDS011;63015;45.378;20.360;2023-09-08T10:44:29;8.52;;;3.13;;
74541;SDS011;63015;45.378;20.360;2023-09-08T10:46:32;9.10;;;3.22;;
74541;SDS011;63015;45.378;20.360;2023-09-08T10:48:45;10.00;;;2.38;;
74541;SDS011;63015;45.378;20.360;2023-09-08T10:50:45;8.05;;;3.42;;
74541;SDS011;63015;45.378;20.360;2023-09-08T10:53:03;8.77;;;3.20;;
74541;SDS011;63015;45.378;20.360;2023-09-08T10:55:07;7.15;;;2.83;;
74541;SDS011;63015;45.378;20.360;2023-09-08T10:57:15;7.55;;;3.55;;
74541;SDS011;63015;45.378;20.360;2023-09-08T10:59:17;6.45;;;2.65;;
74541;SDS011;63015;45.378;20.360;2023-09-08T11:01:19;7.03;;;3.03;;
74541;SDS011;63015;45.378;20.360;2023-09-08T11:03:28;7.60;;;3.22;;
74541;SDS011;63015;45.378;20.360;2023-09-08T11:05:47;5.97;;;2.65;;
74541;SDS011;63015;45.378;20.360;2023-09-08T11:07:48;8.50;;;3.63;;
74541;SDS011;63015;45.378;20.360;2023-09-08T11:09:52;10.15;;;3.22;;
74541;SDS011;63015;45.378;20.360;2023-09-08T11:11:53;7.13;;;3.45;;
74541;SDS011;63015;45.378;20.360;2023-09-08T11:13:54;8.63;;;3.28;;
74541;SDS011;63015;45.378;20.360;2023-09-08T11:15:54;8.85;;;3.28;;
74541;SDS011;63015;45.378;20.360;2023-09-08T11:17:56;10.60;;;3.08;;
74541;SDS011;63015;45.378;20.360;2023-09-08T11:19:57;5.78;;;3.15;;
74541;SDS011;63015;45.378;20.360;2023-09-08T11:21:58;7.05;;;2.97;;
74541;SDS011;63015;45.378;20.360;2023-09-08T11:23:59;6.80;;;2.72;;
74541;SDS011;63015;45.378;20.360;2023-09-08T11:25:59;6.82;;;3.15;;
74541;SDS011;63015;45.378;20.360;2023-09-08T11:28:00;6.60;;;2.63;;
74541;SDS011;63015;45.378;20.360;2023-09-08T11:30:01;6.05;;;3.03;;
74541;SDS011;63015;45.378;20.360;2023-09-08T11:32:02;7.72;;;3.20;;
74541;SDS011;63015;45.378;20.360;2023-09-08T11:34:04;8.18;;;2.70;;
74541;SDS011;63015;45.378;20.360;2023-09-08T11:36:11;6.75;;;2.92;;
74541;SDS011;63015;45.378;20.360;2023-09-08T11:38:16;6.72;;;3.03;;
74541;SDS011;63015;45.378;20.360;2023-09-08T11:40:16;7.95;;;2.80;;
74541;SDS011;63015;45.378;20.360;2023-09-08T11:42:19;7.53;;;3.10;;
74541;SDS011;63015;45.378;20.360;2023-09-08T11:44:21;5.95;;;2.88;;
74541;SDS011;63015;45.378;20.360;2023-09-08T11:46:22;8.13;;;3.00;;
74541;SDS011;63015;45.378;20.360;2023-09-08T11:48:24;5.97;;;2.60;;
74541;SDS011;63015;45.378;20.360;2023-09-08T11:50:25;7.28;;;2.80;;
74541;SDS011;63015;45.378;20.360;2023-09-08T11:52:25;5.10;;;2.53;;
74541;SDS011;63015;45.378;20.360;2023-09-08T11:54:26;6.30;;;3.00;;
74541;SDS011;63015;45.378;20.360;2023-09-08T11:56:28;7.30;;;2.63;;
74541;SDS011;63015;45.378;20.360;2023-09-08T11:58:28;6.95;;;3.03;;
74541;SDS011;63015;45.378;20.360;2023-09-08T12:00:29;7.93;;;2.92;;